sensor_id;sensor_type;location;lat;lon;timestamp;temperature;humidity
79356;SHT31;68825;51.978;5.654;2024-01-16T00:00:40;3.0;74.3
79356;SHT31;68825;51.978;5.654;2024-01-16T00:03:09;3.0;74.2
79356;SHT31;68825;51.978;5.654;2024-01-16T00:05:38;3.0;74.2
79356;SHT31;68825;51.978;5.654;2024-01-16T00:08:06;2.9;74.2
79356;SHT31;68825;51.978;5.654;2024-01-16T00:10:35;2.9;73.9
79356;SHT31;68825;51.978;5.654;2024-01-16T00:13:04;2.9;73.7
79356;SHT31;68825;51.978;5.654;2024-01-16T00:15:32;2.9;73.6
79356;SHT31;68825;51.978;5.654;2024-01-16T00:18:01;2.9;73.4
79356;SHT31;68825;51.978;5.654;2024-01-16T00:20:30;2.9;73.4
79356;SHT31;68825;51.978;5.654;2024-01-16T00:22:59;2.9;73.3
79356;SHT31;68825;51.978;5.654;2024-01-16T00:25:27;2.9;73.3
79356;SHT31;68825;51.978;5.654;2024-01-16T00:27:57;2.9;73.1
79356;SHT31;68825;51.978;5.654;2024-01-16T00:30:26;2.9;74.0
79356;SHT31;68825;51.978;5.654;2024-01-16T00:32:56;2.8;73.9
79356;SHT31;68825;51.978;5.654;2024-01-16T00:35:24;2.8;74.3
79356;SHT31;68825;51.978;5.654;2024-01-16T00:37:53;2.8;74.3
79356;SHT31;68825;51.978;5.654;2024-01-16T00:40:21;2.8;74.6
79356;SHT31;68825;51.978;5.654;2024-01-16T00:42:50;2.8;74.6
79356;SHT31;68825;51.978;5.654;2024-01-16T00:45:21;2.8;74.7
79356;SHT31;68825;51.978;5.654;2024-01-16T00:47:50;2.8;74.7
79356;SHT31;68825;51.978;5.654;2024-01-16T00:50:18;2.8;74.6
79356;SHT31;68825;51.978;5.654;2024-01-16T00:52:48;2.8;74.4
79356;SHT31;68825;51.978;5.654;2024-01-16T00:55:17;2.8;74.7
79356;SHT31;68825;51.978;5.654;2024-01-16T00:57:45;2.8;74.9
79356;SHT31;68825;51.978;5.654;2024-01-16T01:00:14;2.8;75.0
79356;SHT31;68825;51.978;5.654;2024-01-16T01:02:42;2.9;74.9
79356;SHT31;68825;51.978;5.654;2024-01-16T01:05:11;2.9;74.4
79356;SHT31;68825;51.978;5.654;2024-01-16T01:07:40;2.8;74.3
79356;SHT31;68825;51.978;5.654;2024-01-16T01:10:08;2.8;74.3
79356;SHT31;68825;51.978;5.654;2024-01-16T01:12:37;2.8;74.6
79356;SHT31;68825;51.978;5.654;2024-01-16T01:15:06;2.7;74.7
79356;SHT31;68825;51.978;5.654;2024-01-16T01:17:36;2.7;75.0
79356;SHT31;68825;51.978;5.654;2024-01-16T01:20:06;2.7;75.0
79356;SHT31;68825;51.978;5.654;2024-01-16T01:22:35;2.7;75.2
79356;SHT31;68825;51.978;5.654;2024-01-16T01:25:05;2.7;75.3
79356;SHT31;68825;51.978;5.654;2024-01-16T01:27:33;2.7;75.1
79356;SHT31;68825;51.978;5.654;2024-01-16T01:30:02;2.8;74.9
79356;SHT31;68825;51.978;5.654;2024-01-16T01:32:32;2.8;74.7
79356;SHT31;68825;51.978;5.654;2024-01-16T01:35:01;2.8;74.4
79356;SHT31;68825;51.978;5.654;2024-01-16T01:37:29;2.8;74.4
79356;SHT31;68825;51.978;5.654;2024-01-16T01:39:58;2.8;74.4
79356;SHT31;68825;51.978;5.654;2024-01-16T01:42:26;2.8;74.5
79356;SHT31;68825;51.978;5.654;2024-01-16T01:44:56;2.8;74.6
79356;SHT31;68825;51.978;5.654;2024-01-16T01:47:26;2.8;74.8
79356;SHT31;68825;51.978;5.654;2024-01-16T01:49:55;2.8;74.8
79356;SHT31;68825;51.978;5.654;2024-01-16T01:52:26;2.7;75.0
79356;SHT31;68825;51.978;5.654;2024-01-16T01:54:55;2.7;75.1
79356;SHT31;68825;51.978;5.654;2024-01-16T01:57:24;2.7;75.1
79356;SHT31;68825;51.978;5.654;2024-01-16T01:59:53;2.7;75.4
79356;SHT31;68825;51.978;5.654;2024-01-16T02:02:22;2.7;75.4
79356;SHT31;68825;51.978;5.654;2024-01-16T02:04:51;2.7;75.5
79356;SHT31;68825;51.978;5.654;2024-01-16T02:07:22;2.7;75.7
79356;SHT31;68825;51.978;5.654;2024-01-16T02:09:52;2.8;75.6
79356;SHT31;68825;51.978;5.654;2024-01-16T02:12:21;2.8;75.8
79356;SHT31;68825;51.978;5.654;2024-01-16T02:14:50;2.8;75.9
79356;SHT31;68825;51.978;5.654;2024-01-16T02:17:18;2.8;76.0
79356;SHT31;68825;51.978;5.654;2024-01-16T02:19:46;2.8;75.9
79356;SHT31;68825;51.978;5.654;2024-01-16T02:22:20;2.9;76.0
79356;SHT31;68825;51.978;5.654;2024-01-16T02:24:49;2.9;75.8
79356;SHT31;68825;51.978;5.654;2024-01-16T02:27:18;2.9;75.8
79356;SHT31;68825;51.978;5.654;2024-01-16T02:29:48;2.9;75.8
79356;SHT31;68825;51.978;5.654;2024-01-16T02:32:19;3.0;75.8
79356;SHT31;68825;51.978;5.654;2024-01-16T02:34:47;3.0;75.6
79356;SHT31;68825;51.978;5.654;2024-01-16T02:37:17;3.0;75.6
79356;SHT31;68825;51.978;5.654;2024-01-16T02:39:45;3.1;75.4
79356;SHT31;68825;51.978;5.654;2024-01-16T02:42:14;3.1;75.3
79356;SHT31;68825;51.978;5.654;2024-01-16T02:44:44;3.2;75.4
79356;SHT31;68825;51.978;5.654;2024-01-16T02:47:13;3.2;75.4
79356;SHT31;68825;51.978;5.654;2024-01-16T02:49:41;3.2;75.4
79356;SHT31;68825;51.978;5.654;2024-01-16T02:52:10;3.2;75.5
79356;SHT31;68825;51.978;5.654;2024-01-16T02:54:38;3.3;75.5
79356;SHT31;68825;51.978;5.654;2024-01-16T02:57:07;3.3;75.5
79356;SHT31;68825;51.978;5.654;2024-01-16T02:59:35;3.4;75.3
79356;SHT31;68825;51.978;5.654;2024-01-16T03:02:04;3.4;75.0
79356;SHT31;68825;51.978;5.654;2024-01-16T03:04:33;3.4;74.9
79356;SHT31;68825;51.978;5.654;2024-01-16T03:07:04;3.5;75.0
79356;SHT31;68825;51.978;5.654;2024-01-16T03:09:33;3.5;74.9
79356;SHT31;68825;51.978;5.654;2024-01-16T03:12:03;3.5;74.7
79356;SHT31;68825;51.978;5.654;2024-01-16T03:14:32;3.5;74.6
79356;SHT31;68825;51.978;5.654;2024-01-16T03:17:03;3.6;74.6
79356;SHT31;68825;51.978;5.654;2024-01-16T03:19:32;3.6;74.4
79356;SHT31;68825;51.978;5.654;2024-01-16T03:22:01;3.6;74.1
79356;SHT31;68825;51.978;5.654;2024-01-16T03:24:34;3.7;73.8
79356;SHT31;68825;51.978;5.654;2024-01-16T03:27:03;3.7;73.7
79356;SHT31;68825;51.978;5.654;2024-01-16T03:29:31;3.7;73.7
79356;SHT31;68825;51.978;5.654;2024-01-16T03:32:01;3.7;73.5
79356;SHT31;68825;51.978;5.654;2024-01-16T03:34:31;3.7;73.7
79356;SHT31;68825;51.978;5.654;2024-01-16T03:36:59;3.7;73.6
79356;SHT31;68825;51.978;5.654;2024-01-16T03:39:28;3.7;73.7
79356;SHT31;68825;51.978;5.654;2024-01-16T03:41:56;3.7;73.7
79356;SHT31;68825;51.978;5.654;2024-01-16T03:44:25;3.7;73.7
79356;SHT31;68825;51.978;5.654;2024-01-16T03:46:53;3.7;73.7
79356;SHT31;68825;51.978;5.654;2024-01-16T03:49:22;3.7;73.7
79356;SHT31;68825;51.978;5.654;2024-01-16T03:51:53;3.7;73.9
79356;SHT31;68825;51.978;5.654;2024-01-16T03:54:21;3.6;73.8
79356;SHT31;68825;51.978;5.654;2024-01-16T03:56:50;3.6;74.0
79356;SHT31;68825;51.978;5.654;2024-01-16T03:59:19;3.6;74.2
79356;SHT31;68825;51.978;5.654;2024-01-16T04:01:49;3.6;74.3
79356;SHT31;68825;51.978;5.654;2024-01-16T04:04:19;3.6;74.1
79356;SHT31;68825;51.978;5.654;2024-01-16T04:06:50;3.6;74.4
79356;SHT31;68825;51.978;5.654;2024-01-16T04:09:19;3.5;74.5
79356;SHT31;68825;51.978;5.654;2024-01-16T04:11:49;3.5;74.4
79356;SHT31;68825;51.978;5.654;2024-01-16T04:14:18;3.5;74.4
79356;SHT31;68825;51.978;5.654;2024-01-16T04:16:46;3.5;74.2
79356;SHT31;68825;51.978;5.654;2024-01-16T04:19:15;3.5;74.3
79356;SHT31;68825;51.978;5.654;2024-01-16T04:21:43;3.5;74.4
79356;SHT31;68825;51.978;5.654;2024-01-16T04:24:12;3.5;74.4
79356;SHT31;68825;51.978;5.654;2024-01-16T04:26:41;3.5;74.0
79356;SHT31;68825;51.978;5.654;2024-01-16T04:29:11;3.5;74.0
79356;SHT31;68825;51.978;5.654;2024-01-16T04:31:41;3.5;74.0
79356;SHT31;68825;51.978;5.654;2024-01-16T04:34:10;3.4;74.0
79356;SHT31;68825;51.978;5.654;2024-01-16T04:36:38;3.4;74.0
79356;SHT31;68825;51.978;5.654;2024-01-16T04:39:07;3.4;74.2
79356;SHT31;68825;51.978;5.654;2024-01-16T04:41:36;3.4;74.1
79356;SHT31;68825;51.978;5.654;2024-01-16T04:44:05;3.4;74.1
79356;SHT31;68825;51.978;5.654;2024-01-16T04:46:34;3.4;74.2
79356;SHT31;68825;51.978;5.654;2024-01-16T04:49:02;3.4;74.4
79356;SHT31;68825;51.978;5.654;2024-01-16T04:51:31;3.4;74.4
79356;SHT31;68825;51.978;5.654;2024-01-16T04:54:00;3.4;74.5
79356;SHT31;68825;51.978;5.654;2024-01-16T04:56:29;3.4;74.5
79356;SHT31;68825;51.978;5.654;2024-01-16T04:58:57;3.4;74.6
79356;SHT31;68825;51.978;5.654;2024-01-16T05:01:26;3.4;74.3
79356;SHT31;68825;51.978;5.654;2024-01-16T05:03:55;3.4;74.6
79356;SHT31;68825;51.978;5.654;2024-01-16T05:06:25;3.4;74.8
79356;SHT31;68825;51.978;5.654;2024-01-16T05:08:54;3.4;74.9
79356;SHT31;68825;51.978;5.654;2024-01-16T05:11:22;3.4;75.0
79356;SHT31;68825;51.978;5.654;2024-01-16T05:13:51;3.4;74.9
79356;SHT31;68825;51.978;5.654;2024-01-16T05:16:24;3.4;74.7
79356;SHT31;68825;51.978;5.654;2024-01-16T05:18:53;3.4;74.7
79356;SHT31;68825;51.978;5.654;2024-01-16T05:21:22;3.4;74.6
79356;SHT31;68825;51.978;5.654;2024-01-16T05:23:51;3.4;74.6
79356;SHT31;68825;51.978;5.654;2024-01-16T05:26:19;3.4;74.6
79356;SHT31;68825;51.978;5.654;2024-01-16T05:28:48;3.3;74.4
79356;SHT31;68825;51.978;5.654;2024-01-16T05:31:17;3.3;74.5
79356;SHT31;68825;51.978;5.654;2024-01-16T05:33:46;3.3;74.5
79356;SHT31;68825;51.978;5.654;2024-01-16T05:36:14;3.3;74.8
79356;SHT31;68825;51.978;5.654;2024-01-16T05:38:44;3.3;74.6
79356;SHT31;68825;51.978;5.654;2024-01-16T05:41:13;3.3;74.5
79356;SHT31;68825;51.978;5.654;2024-01-16T05:43:43;3.3;74.6
79356;SHT31;68825;51.978;5.654;2024-01-16T05:46:13;3.3;74.8
79356;SHT31;68825;51.978;5.654;2024-01-16T05:48:41;3.3;74.9
79356;SHT31;68825;51.978;5.654;2024-01-16T05:51:14;3.3;75.0
79356;SHT31;68825;51.978;5.654;2024-01-16T05:53:42;3.3;75.3
79356;SHT31;68825;51.978;5.654;2024-01-16T05:56:12;3.3;75.1
79356;SHT31;68825;51.978;5.654;2024-01-16T05:58:40;3.4;75.1
79356;SHT31;68825;51.978;5.654;2024-01-16T06:01:09;3.4;75.1
79356;SHT31;68825;51.978;5.654;2024-01-16T06:03:39;3.4;75.2
79356;SHT31;68825;51.978;5.654;2024-01-16T06:06:08;3.5;75.1
79356;SHT31;68825;51.978;5.654;2024-01-16T06:08:39;3.5;74.9
79356;SHT31;68825;51.978;5.654;2024-01-16T06:11:10;3.5;74.9
79356;SHT31;68825;51.978;5.654;2024-01-16T06:13:38;3.5;75.0
79356;SHT31;68825;51.978;5.654;2024-01-16T06:16:08;3.5;75.0
79356;SHT31;68825;51.978;5.654;2024-01-16T06:18:36;3.5;75.0
79356;SHT31;68825;51.978;5.654;2024-01-16T06:21:05;3.5;75.2
79356;SHT31;68825;51.978;5.654;2024-01-16T06:23:34;3.5;75.2
79356;SHT31;68825;51.978;5.654;2024-01-16T06:26:03;3.5;75.3
79356;SHT31;68825;51.978;5.654;2024-01-16T06:28:31;3.5;75.5
79356;SHT31;68825;51.978;5.654;2024-01-16T06:31:00;3.5;75.5
79356;SHT31;68825;51.978;5.654;2024-01-16T06:33:28;3.5;75.5
79356;SHT31;68825;51.978;5.654;2024-01-16T06:35:57;3.5;75.6
79356;SHT31;68825;51.978;5.654;2024-01-16T06:38:25;3.5;75.7
79356;SHT31;68825;51.978;5.654;2024-01-16T06:40:56;3.5;75.7
79356;SHT31;68825;51.978;5.654;2024-01-16T06:43:24;3.5;75.7
79356;SHT31;68825;51.978;5.654;2024-01-16T06:45:55;3.5;75.7
79356;SHT31;68825;51.978;5.654;2024-01-16T06:48:24;3.5;75.7
79356;SHT31;68825;51.978;5.654;2024-01-16T06:50:53;3.6;75.6
79356;SHT31;68825;51.978;5.654;2024-01-16T06:53:22;3.6;75.7
79356;SHT31;68825;51.978;5.654;2024-01-16T06:55:50;3.6;75.6
79356;SHT31;68825;51.978;5.654;2024-01-16T06:58:23;3.6;75.6
79356;SHT31;68825;51.978;5.654;2024-01-16T07:00:54;3.6;75.4
79356;SHT31;68825;51.978;5.654;2024-01-16T07:03:23;3.6;75.4
79356;SHT31;68825;51.978;5.654;2024-01-16T07:05:52;3.7;75.2
79356;SHT31;68825;51.978;5.654;2024-01-16T07:08:20;3.7;75.2
79356;SHT31;68825;51.978;5.654;2024-01-16T07:10:49;3.7;75.2
79356;SHT31;68825;51.978;5.654;2024-01-16T07:13:18;3.7;75.3
79356;SHT31;68825;51.978;5.654;2024-01-16T07:15:47;3.7;75.2
79356;SHT31;68825;51.978;5.654;2024-01-16T07:18:15;3.7;75.1
79356;SHT31;68825;51.978;5.654;2024-01-16T07:20:44;3.8;74.7
79356;SHT31;68825;51.978;5.654;2024-01-16T07:23:13;3.8;74.6
79356;SHT31;68825;51.978;5.654;2024-01-16T07:25:42;3.8;74.2
79356;SHT31;68825;51.978;5.654;2024-01-16T07:28:11;3.8;74.1
79356;SHT31;68825;51.978;5.654;2024-01-16T07:30:41;3.8;74.2
79356;SHT31;68825;51.978;5.654;2024-01-16T07:33:10;3.8;74.3
79356;SHT31;68825;51.978;5.654;2024-01-16T07:35:39;3.8;74.0
79356;SHT31;68825;51.978;5.654;2024-01-16T07:38:14;3.8;74.2
79356;SHT31;68825;51.978;5.654;2024-01-16T07:40:42;3.8;74.1
79356;SHT31;68825;51.978;5.654;2024-01-16T07:43:11;3.8;74.0
79356;SHT31;68825;51.978;5.654;2024-01-16T07:45:40;3.8;74.2
79356;SHT31;68825;51.978;5.654;2024-01-16T07:48:08;3.8;74.1
79356;SHT31;68825;51.978;5.654;2024-01-16T07:50:37;3.8;73.7
79356;SHT31;68825;51.978;5.654;2024-01-16T07:53:05;3.8;73.5
79356;SHT31;68825;51.978;5.654;2024-01-16T07:55:34;3.8;73.6
79356;SHT31;68825;51.978;5.654;2024-01-16T07:58:03;3.8;73.6
79356;SHT31;68825;51.978;5.654;2024-01-16T08:00:33;3.8;73.3
79356;SHT31;68825;51.978;5.654;2024-01-16T08:03:01;3.8;73.2
79356;SHT31;68825;51.978;5.654;2024-01-16T08:05:31;3.8;73.2
79356;SHT31;68825;51.978;5.654;2024-01-16T08:08:00;3.8;72.8
79356;SHT31;68825;51.978;5.654;2024-01-16T08:10:29;3.8;73.1
79356;SHT31;68825;51.978;5.654;2024-01-16T08:12:57;3.9;73.1
79356;SHT31;68825;51.978;5.654;2024-01-16T08:15:26;3.9;72.8
79356;SHT31;68825;51.978;5.654;2024-01-16T08:17:54;3.9;73.0
79356;SHT31;68825;51.978;5.654;2024-01-16T08:20:23;3.9;73.2
79356;SHT31;68825;51.978;5.654;2024-01-16T08:22:52;3.9;72.7
79356;SHT31;68825;51.978;5.654;2024-01-16T08:25:21;3.9;71.9
79356;SHT31;68825;51.978;5.654;2024-01-16T08:27:50;3.9;71.6
79356;SHT31;68825;51.978;5.654;2024-01-16T08:30:19;3.9;72.1
79356;SHT31;68825;51.978;5.654;2024-01-16T08:32:48;3.8;71.7
79356;SHT31;68825;51.978;5.654;2024-01-16T08:35:20;3.8;71.8
79356;SHT31;68825;51.978;5.654;2024-01-16T08:37:48;3.8;72.3
79356;SHT31;68825;51.978;5.654;2024-01-16T08:40:19;3.8;71.6
79356;SHT31;68825;51.978;5.654;2024-01-16T08:42:48;3.8;71.8
79356;SHT31;68825;51.978;5.654;2024-01-16T08:45:21;3.8;71.4
79356;SHT31;68825;51.978;5.654;2024-01-16T08:47:49;3.8;71.6
79356;SHT31;68825;51.978;5.654;2024-01-16T08:50:18;3.8;71.2
79356;SHT31;68825;51.978;5.654;2024-01-16T08:52:48;3.8;71.5
79356;SHT31;68825;51.978;5.654;2024-01-16T08:55:18;3.9;71.2
79356;SHT31;68825;51.978;5.654;2024-01-16T08:57:46;3.9;71.3
79356;SHT31;68825;51.978;5.654;2024-01-16T09:00:15;3.9;71.8
79356;SHT31;68825;51.978;5.654;2024-01-16T09:02:44;3.9;71.4
79356;SHT31;68825;51.978;5.654;2024-01-16T09:05:15;3.9;71.0
79356;SHT31;68825;51.978;5.654;2024-01-16T09:07:44;3.9;71.1
79356;SHT31;68825;51.978;5.654;2024-01-16T09:10:14;3.9;70.5
79356;SHT31;68825;51.978;5.654;2024-01-16T09:12:44;3.9;69.9
79356;SHT31;68825;51.978;5.654;2024-01-16T09:15:15;3.9;70.4
79356;SHT31;68825;51.978;5.654;2024-01-16T09:17:43;3.9;70.7
79356;SHT31;68825;51.978;5.654;2024-01-16T09:20:12;3.9;70.2
79356;SHT31;68825;51.978;5.654;2024-01-16T09:22:41;3.9;70.8
79356;SHT31;68825;51.978;5.654;2024-01-16T09:25:10;3.9;69.6
79356;SHT31;68825;51.978;5.654;2024-01-16T09:27:41;3.9;70.5
79356;SHT31;68825;51.978;5.654;2024-01-16T09:30:10;3.9;69.6
79356;SHT31;68825;51.978;5.654;2024-01-16T09:32:41;3.9;70.4
79356;SHT31;68825;51.978;5.654;2024-01-16T09:35:13;3.9;70.5
79356;SHT31;68825;51.978;5.654;2024-01-16T09:37:42;3.9;71.0
79356;SHT31;68825;51.978;5.654;2024-01-16T09:40:11;3.9;70.2
79356;SHT31;68825;51.978;5.654;2024-01-16T09:42:43;3.9;70.1
79356;SHT31;68825;51.978;5.654;2024-01-16T09:45:20;4.0;70.5
79356;SHT31;68825;51.978;5.654;2024-01-16T09:47:50;4.0;69.2
79356;SHT31;68825;51.978;5.654;2024-01-16T09:50:19;4.0;69.8
79356;SHT31;68825;51.978;5.654;2024-01-16T09:52:49;4.0;68.8
79356;SHT31;68825;51.978;5.654;2024-01-16T09:55:18;4.0;68.4
79356;SHT31;68825;51.978;5.654;2024-01-16T09:57:52;4.0;68.9
79356;SHT31;68825;51.978;5.654;2024-01-16T10:00:21;4.0;67.8
79356;SHT31;68825;51.978;5.654;2024-01-16T10:02:52;3.9;69.0
79356;SHT31;68825;51.978;5.654;2024-01-16T10:05:25;3.9;68.8
79356;SHT31;68825;51.978;5.654;2024-01-16T10:07:54;3.9;69.2
79356;SHT31;68825;51.978;5.654;2024-01-16T10:10:23;3.9;70.1
79356;SHT31;68825;51.978;5.654;2024-01-16T10:12:57;3.9;68.6
79356;SHT31;68825;51.978;5.654;2024-01-16T10:15:26;3.9;69.6
79356;SHT31;68825;51.978;5.654;2024-01-16T10:17:56;3.8;69.1
79356;SHT31;68825;51.978;5.654;2024-01-16T10:20:35;3.8;69.2
79356;SHT31;68825;51.978;5.654;2024-01-16T10:23:04;3.8;68.3
79356;SHT31;68825;51.978;5.654;2024-01-16T10:25:32;3.8;69.2
79356;SHT31;68825;51.978;5.654;2024-01-16T10:28:07;3.8;68.4
79356;SHT31;68825;51.978;5.654;2024-01-16T10:30:38;3.8;68.8
79356;SHT31;68825;51.978;5.654;2024-01-16T10:33:16;3.8;69.1
79356;SHT31;68825;51.978;5.654;2024-01-16T10:35:45;3.8;69.7
79356;SHT31;68825;51.978;5.654;2024-01-16T10:38:23;3.8;68.9
79356;SHT31;68825;51.978;5.654;2024-01-16T10:41:06;3.8;68.3
79356;SHT31;68825;51.978;5.654;2024-01-16T10:43:37;3.8;68.5
79356;SHT31;68825;51.978;5.654;2024-01-16T10:46:09;3.8;69.0
79356;SHT31;68825;51.978;5.654;2024-01-16T10:48:40;3.8;69.0
79356;SHT31;68825;51.978;5.654;2024-01-16T10:51:11;3.8;69.4
79356;SHT31;68825;51.978;5.654;2024-01-16T10:53:43;3.8;69.9
79356;SHT31;68825;51.978;5.654;2024-01-16T10:56:13;3.9;69.2
79356;SHT31;68825;51.978;5.654;2024-01-16T10:58:43;3.9;67.6
79356;SHT31;68825;51.978;5.654;2024-01-16T11:01:15;3.9;68.7
79356;SHT31;68825;51.978;5.654;2024-01-16T11:03:47;3.9;67.6
79356;SHT31;68825;51.978;5.654;2024-01-16T11:06:17;3.9;67.7
79356;SHT31;68825;51.978;5.654;2024-01-16T11:08:48;4.0;67.9
79356;SHT31;68825;51.978;5.654;2024-01-16T11:11:18;4.0;68.3
79356;SHT31;68825;51.978;5.654;2024-01-16T11:13:48;4.0;67.6
79356;SHT31;68825;51.978;5.654;2024-01-16T11:16:18;4.1;67.2
79356;SHT31;68825;51.978;5.654;2024-01-16T11:18:49;4.1;68.3
79356;SHT31;68825;51.978;5.654;2024-01-16T11:21:18;4.2;68.7
79356;SHT31;68825;51.978;5.654;2024-01-16T11:23:48;4.2;67.4
79356;SHT31;68825;51.978;5.654;2024-01-16T11:26:27;4.3;67.5
79356;SHT31;68825;51.978;5.654;2024-01-16T11:28:59;4.3;66.4
79356;SHT31;68825;51.978;5.654;2024-01-16T11:31:30;4.4;67.7
79356;SHT31;68825;51.978;5.654;2024-01-16T11:34:00;4.4;67.1
79356;SHT31;68825;51.978;5.654;2024-01-16T11:36:51;4.4;66.8
79356;SHT31;68825;51.978;5.654;2024-01-16T11:39:21;4.5;68.1
79356;SHT31;68825;51.978;5.654;2024-01-16T11:41:55;4.5;66.6
79356;SHT31;68825;51.978;5.654;2024-01-16T11:44:41;4.6;66.9
79356;SHT31;68825;51.978;5.654;2024-01-16T11:47:18;4.7;68.4
79356;SHT31;68825;51.978;5.654;2024-01-16T11:49:49;4.7;66.9
79356;SHT31;68825;51.978;5.654;2024-01-16T11:52:40;4.8;66.2
79356;SHT31;68825;51.978;5.654;2024-01-16T11:55:32;4.8;65.4
79356;SHT31;68825;51.978;5.654;2024-01-16T11:58:24;4.9;65.1
79356;SHT31;68825;51.978;5.654;2024-01-16T12:00:54;4.9;65.9
79356;SHT31;68825;51.978;5.654;2024-01-16T12:03:24;4.9;65.4
79356;SHT31;68825;51.978;5.654;2024-01-16T12:05:57;5.0;65.9
79356;SHT31;68825;51.978;5.654;2024-01-16T12:08:26;5.0;64.1
79356;SHT31;68825;51.978;5.654;2024-01-16T12:10:56;5.0;64.7
79356;SHT31;68825;51.978;5.654;2024-01-16T12:13:26;5.0;64.6
79356;SHT31;68825;51.978;5.654;2024-01-16T12:16:01;5.0;63.9
79356;SHT31;68825;51.978;5.654;2024-01-16T12:18:31;5.1;64.7
79356;SHT31;68825;51.978;5.654;2024-01-16T12:21:09;5.1;64.4
79356;SHT31;68825;51.978;5.654;2024-01-16T12:23:39;5.1;63.8
79356;SHT31;68825;51.978;5.654;2024-01-16T12:26:08;5.1;64.6
79356;SHT31;68825;51.978;5.654;2024-01-16T12:28:36;5.2;62.4
79356;SHT31;68825;51.978;5.654;2024-01-16T12:31:05;5.2;64.4
79356;SHT31;68825;51.978;5.654;2024-01-16T12:33:33;5.2;64.4
79356;SHT31;68825;51.978;5.654;2024-01-16T12:36:03;5.2;62.9
79356;SHT31;68825;51.978;5.654;2024-01-16T12:38:34;5.2;63.1
79356;SHT31;68825;51.978;5.654;2024-01-16T12:41:10;5.2;62.2
79356;SHT31;68825;51.978;5.654;2024-01-16T12:43:39;5.2;61.6
79356;SHT31;68825;51.978;5.654;2024-01-16T12:46:11;5.2;61.2
79356;SHT31;68825;51.978;5.654;2024-01-16T12:48:40;5.2;61.0
79356;SHT31;68825;51.978;5.654;2024-01-16T12:51:08;5.2;61.8
79356;SHT31;68825;51.978;5.654;2024-01-16T12:53:38;5.1;62.2
79356;SHT31;68825;51.978;5.654;2024-01-16T12:56:08;5.1;61.2
79356;SHT31;68825;51.978;5.654;2024-01-16T12:58:38;5.1;61.6
79356;SHT31;68825;51.978;5.654;2024-01-16T13:01:27;5.0;61.2
79356;SHT31;68825;51.978;5.654;2024-01-16T13:04:05;5.0;62.5
79356;SHT31;68825;51.978;5.654;2024-01-16T13:06:34;5.0;63.0
79356;SHT31;68825;51.978;5.654;2024-01-16T13:09:07;5.0;62.8
79356;SHT31;68825;51.978;5.654;2024-01-16T13:11:46;5.0;63.7
79356;SHT31;68825;51.978;5.654;2024-01-16T13:14:15;5.0;63.7
79356;SHT31;68825;51.978;5.654;2024-01-16T13:16:44;5.0;61.6
79356;SHT31;68825;51.978;5.654;2024-01-16T13:19:16;5.0;63.2
79356;SHT31;68825;51.978;5.654;2024-01-16T13:21:44;5.0;63.6
79356;SHT31;68825;51.978;5.654;2024-01-16T13:24:13;5.1;61.7
79356;SHT31;68825;51.978;5.654;2024-01-16T13:26:43;5.1;62.3
79356;SHT31;68825;51.978;5.654;2024-01-16T13:29:14;5.1;60.5
79356;SHT31;68825;51.978;5.654;2024-01-16T13:31:44;5.1;60.9
79356;SHT31;68825;51.978;5.654;2024-01-16T13:34:13;5.2;62.1
79356;SHT31;68825;51.978;5.654;2024-01-16T13:36:44;5.2;59.3
79356;SHT31;68825;51.978;5.654;2024-01-16T13:39:13;5.2;60.7
79356;SHT31;68825;51.978;5.654;2024-01-16T13:41:42;5.2;59.5
79356;SHT31;68825;51.978;5.654;2024-01-16T13:44:11;5.2;59.9
79356;SHT31;68825;51.978;5.654;2024-01-16T13:46:41;5.3;60.2
79356;SHT31;68825;51.978;5.654;2024-01-16T13:49:11;5.3;61.0
79356;SHT31;68825;51.978;5.654;2024-01-16T13:51:43;5.4;59.3
79356;SHT31;68825;51.978;5.654;2024-01-16T13:54:12;5.4;60.3
79356;SHT31;68825;51.978;5.654;2024-01-16T13:56:41;5.4;60.7
79356;SHT31;68825;51.978;5.654;2024-01-16T13:59:13;5.4;61.3
79356;SHT31;68825;51.978;5.654;2024-01-16T14:01:41;5.5;59.2
79356;SHT31;68825;51.978;5.654;2024-01-16T14:04:11;5.5;58.9
79356;SHT31;68825;51.978;5.654;2024-01-16T14:06:39;5.5;57.5
79356;SHT31;68825;51.978;5.654;2024-01-16T14:09:08;5.5;59.2
79356;SHT31;68825;51.978;5.654;2024-01-16T14:11:36;5.4;58.2
79356;SHT31;68825;51.978;5.654;2024-01-16T14:14:05;5.4;57.5
79356;SHT31;68825;51.978;5.654;2024-01-16T14:16:33;5.4;58.9
79356;SHT31;68825;51.978;5.654;2024-01-16T14:19:04;5.3;58.4
79356;SHT31;68825;51.978;5.654;2024-01-16T14:21:32;5.3;58.6
79356;SHT31;68825;51.978;5.654;2024-01-16T14:24:01;5.3;59.2
79356;SHT31;68825;51.978;5.654;2024-01-16T14:26:30;5.2;59.5
79356;SHT31;68825;51.978;5.654;2024-01-16T14:28:59;5.2;58.8
79356;SHT31;68825;51.978;5.654;2024-01-16T14:31:27;5.2;60.0
79356;SHT31;68825;51.978;5.654;2024-01-16T14:33:56;5.2;60.7
79356;SHT31;68825;51.978;5.654;2024-01-16T14:36:24;5.1;60.8
79356;SHT31;68825;51.978;5.654;2024-01-16T14:38:53;5.1;60.3
79356;SHT31;68825;51.978;5.654;2024-01-16T14:41:22;5.1;60.5
79356;SHT31;68825;51.978;5.654;2024-01-16T14:43:50;5.1;60.0
79356;SHT31;68825;51.978;5.654;2024-01-16T14:46:19;5.1;60.3
79356;SHT31;68825;51.978;5.654;2024-01-16T14:48:48;5.0;59.6
79356;SHT31;68825;51.978;5.654;2024-01-16T14:51:16;5.0;60.4
79356;SHT31;68825;51.978;5.654;2024-01-16T14:53:47;4.9;59.7
79356;SHT31;68825;51.978;5.654;2024-01-16T14:56:15;4.9;61.2
79356;SHT31;68825;51.978;5.654;2024-01-16T14:58:46;4.9;60.8
79356;SHT31;68825;51.978;5.654;2024-01-16T15:01:15;4.8;61.1
79356;SHT31;68825;51.978;5.654;2024-01-16T15:03:45;4.8;61.1
79356;SHT31;68825;51.978;5.654;2024-01-16T15:06:15;4.8;62.5
79356;SHT31;68825;51.978;5.654;2024-01-16T15:08:43;4.7;62.2
79356;SHT31;68825;51.978;5.654;2024-01-16T15:11:14;4.7;61.7
79356;SHT31;68825;51.978;5.654;2024-01-16T15:13:43;4.7;61.8
79356;SHT31;68825;51.978;5.654;2024-01-16T15:16:12;4.7;62.1
79356;SHT31;68825;51.978;5.654;2024-01-16T15:18:42;4.6;62.0
79356;SHT31;68825;51.978;5.654;2024-01-16T15:21:13;4.6;62.5
79356;SHT31;68825;51.978;5.654;2024-01-16T15:23:41;4.6;61.7
79356;SHT31;68825;51.978;5.654;2024-01-16T15:26:10;4.6;62.6
79356;SHT31;68825;51.978;5.654;2024-01-16T15:28:44;4.6;62.7
79356;SHT31;68825;51.978;5.654;2024-01-16T15:31:12;4.5;63.2
79356;SHT31;68825;51.978;5.654;2024-01-16T15:33:41;4.5;62.6
79356;SHT31;68825;51.978;5.654;2024-01-16T15:36:10;4.5;61.3
79356;SHT31;68825;51.978;5.654;2024-01-16T15:38:38;4.5;62.5
79356;SHT31;68825;51.978;5.654;2024-01-16T15:41:07;4.4;61.7
79356;SHT31;68825;51.978;5.654;2024-01-16T15:43:35;4.4;62.9
79356;SHT31;68825;51.978;5.654;2024-01-16T15:46:04;4.4;62.4
79356;SHT31;68825;51.978;5.654;2024-01-16T15:48:32;4.4;62.7
79356;SHT31;68825;51.978;5.654;2024-01-16T15:51:01;4.3;63.0
79356;SHT31;68825;51.978;5.654;2024-01-16T15:53:32;4.3;62.8
79356;SHT31;68825;51.978;5.654;2024-01-16T15:56:03;4.3;62.9
79356;SHT31;68825;51.978;5.654;2024-01-16T15:58:32;4.3;63.1
79356;SHT31;68825;51.978;5.654;2024-01-16T16:01:01;4.2;63.3
79356;SHT31;68825;51.978;5.654;2024-01-16T16:03:30;4.2;63.2
79356;SHT31;68825;51.978;5.654;2024-01-16T16:05:58;4.2;63.7
79356;SHT31;68825;51.978;5.654;2024-01-16T16:08:27;4.2;64.0
79356;SHT31;68825;51.978;5.654;2024-01-16T16:10:56;4.2;63.7
79356;SHT31;68825;51.978;5.654;2024-01-16T16:13:25;4.2;62.9
79356;SHT31;68825;51.978;5.654;2024-01-16T16:15:57;4.3;63.8
79356;SHT31;68825;51.978;5.654;2024-01-16T16:18:26;4.3;63.7
79356;SHT31;68825;51.978;5.654;2024-01-16T16:20:54;4.3;63.4
79356;SHT31;68825;51.978;5.654;2024-01-16T16:23:23;4.3;63.8
79356;SHT31;68825;51.978;5.654;2024-01-16T16:25:52;4.3;63.8
79356;SHT31;68825;51.978;5.654;2024-01-16T16:28:20;4.4;63.3
79356;SHT31;68825;51.978;5.654;2024-01-16T16:30:49;4.4;63.3
79356;SHT31;68825;51.978;5.654;2024-01-16T16:33:17;4.4;62.8